createdAt,value
2019-06-10T00:00:13.477Z,4.13
2019-06-10T00:02:35.822Z,4.40
2019-06-10T00:05:05.559Z,4.07
2019-06-10T00:07:31.594Z,3.90
2019-06-10T00:10:00.441Z,4.10
2019-06-10T00:12:25.546Z,4.10
2019-06-10T00:14:52.904Z,3.77
2019-06-10T00:17:21.400Z,4.33
2019-06-10T00:19:47.644Z,3.97
2019-06-10T00:22:14.993Z,4.30
2019-06-10T00:24:42.376Z,4.00
2019-06-10T00:27:11.736Z,3.97
2019-06-10T00:29:37.087Z,4.13
2019-06-10T00:32:06.359Z,3.97
2019-06-10T00:34:34.907Z,4.37
2019-06-10T00:37:02.061Z,3.70
2019-06-10T00:39:26.556Z,3.80
2019-06-10T00:41:53.911Z,3.80
2019-06-10T00:44:21.269Z,4.17
2019-06-10T00:46:48.645Z,3.90
2019-06-10T00:49:15.995Z,4.30
2019-06-10T00:51:43.346Z,3.70
2019-06-10T00:54:15.084Z,4.17
2019-06-10T00:56:41.234Z,3.77
2019-06-10T00:59:07.733Z,3.90
2019-06-10T01:01:33.892Z,4.33
2019-06-10T01:04:03.275Z,3.83
2019-06-10T01:06:28.598Z,3.77
2019-06-10T01:08:55.971Z,3.93
2019-06-10T01:11:26.839Z,4.17
2019-06-10T01:13:50.915Z,4.10
2019-06-10T01:16:18.343Z,4.40
2019-06-10T01:18:45.697Z,4.20
2019-06-10T01:21:14.248Z,4.20
2019-06-10T01:23:41.642Z,3.97
2019-06-10T01:26:07.802Z,3.97
2019-06-10T01:28:35.149Z,4.60
2019-06-10T01:31:02.518Z,4.23
2019-06-10T01:33:31.872Z,4.50
2019-06-10T01:35:57.227Z,4.80
2019-06-10T01:38:24.956Z,4.20
2019-06-10T01:40:52.304Z,4.60
2019-06-10T01:43:21.448Z,4.20
2019-06-10T01:45:47.035Z,4.37
2019-06-10T01:48:15.306Z,4.67
2019-06-10T01:50:41.750Z,5.00
2019-06-10T01:53:10.085Z,4.33
2019-06-10T01:55:38.274Z,4.70
2019-06-10T01:58:05.630Z,4.77
2019-06-10T02:00:33.350Z,4.40
2019-06-10T02:03:03.598Z,4.57
2019-06-10T02:05:28.052Z,4.63
2019-06-10T02:07:55.427Z,4.93
2019-06-10T02:10:23.129Z,5.20
2019-06-10T02:12:50.880Z,5.13
2019-06-10T02:15:18.379Z,5.37
2019-06-10T02:17:44.881Z,4.90
2019-06-10T02:20:14.833Z,4.83
2019-06-10T02:22:41.087Z,5.27
2019-06-10T02:25:06.981Z,5.37
2019-06-10T02:27:34.339Z,5.33
2019-06-10T02:30:13.045Z,5.60
2019-06-10T02:32:36.143Z,5.40
2019-06-10T02:35:07.727Z,5.37
2019-06-10T02:37:31.347Z,5.73
2019-06-10T02:39:53.935Z,4.70
2019-06-10T02:42:21.549Z,6.10
2019-06-10T02:44:45.935Z,4.90
2019-06-10T02:47:16.897Z,5.43
2019-06-10T02:49:52.609Z,5.27
2019-06-10T02:52:23.288Z,5.30
2019-06-10T02:54:47.278Z,5.53
2019-06-10T02:57:18.774Z,5.60
2019-06-10T02:59:44.479Z,5.50
2019-06-10T03:02:13.538Z,5.47
2019-06-10T03:04:39.195Z,5.50
2019-06-10T03:07:06.909Z,5.30
2019-06-10T03:09:35.753Z,5.40
2019-06-10T03:12:04.737Z,5.57
2019-06-10T03:14:28.973Z,5.07
2019-06-10T03:16:56.322Z,5.00
2019-06-10T03:19:38.714Z,5.13
2019-06-10T03:21:52.184Z,5.27
2019-06-10T03:24:19.155Z,5.03
2019-06-10T03:26:45.784Z,5.40
2019-06-10T03:29:13.669Z,4.80
2019-06-10T03:31:46.391Z,5.17
2019-06-10T03:34:08.381Z,5.13
2019-06-10T03:36:35.760Z,5.23
2019-06-10T03:39:03.112Z,5.13
2019-06-10T03:41:32.352Z,5.33
2019-06-10T03:43:57.856Z,5.57
2019-06-10T03:46:26.662Z,6.17
2019-06-10T03:48:52.740Z,5.60
2019-06-10T03:51:21.186Z,5.90
2019-06-10T03:53:47.329Z,6.00
2019-06-10T03:56:14.675Z,5.53
2019-06-10T03:58:42.992Z,6.00
2019-06-10T04:01:12.113Z,6.03
2019-06-10T04:03:37.122Z,5.40
2019-06-10T04:06:04.557Z,5.70
2019-06-10T04:08:32.986Z,6.63
2019-06-10T04:10:59.353Z,6.07
2019-06-10T04:13:28.403Z,5.50
2019-06-10T04:15:54.424Z,5.53
2019-06-10T04:18:24.327Z,6.00
2019-06-10T04:20:49.160Z,6.03
2019-06-10T04:23:17.623Z,5.33
2019-06-10T04:25:43.856Z,6.93
2019-06-10T04:28:12.531Z,5.80
2019-06-10T04:30:38.588Z,5.87
2019-06-10T04:33:05.940Z,6.53
2019-06-10T04:35:33.760Z,6.00
2019-06-10T04:38:02.549Z,6.00
2019-06-10T04:40:29.351Z,6.20
2019-06-10T04:42:55.589Z,6.00
2019-06-10T04:45:23.587Z,5.93
2019-06-10T04:47:52.356Z,5.87
2019-06-10T04:50:25.006Z,6.13
2019-06-10T04:52:45.025Z,5.50
2019-06-10T04:55:12.743Z,6.50
2019-06-10T05:36:52.537Z,7.47
2019-06-10T05:39:18.214Z,6.17
2019-06-10T05:41:45.599Z,6.87
2019-06-10T05:44:13.553Z,6.90
2019-06-10T08:18:48.599Z,5.43
2019-06-10T08:21:03.207Z,5.68
2019-06-10T08:25:57.802Z,5.53
2019-06-10T08:28:24.084Z,5.97
2019-06-10T08:30:53.141Z,6.57
2019-06-10T08:33:18.835Z,4.90
2019-06-10T08:40:40.654Z,5.72
2019-06-10T08:43:07.379Z,5.85
2019-06-10T08:45:34.762Z,5.57
2019-06-10T08:48:02.766Z,5.43
2019-06-10T08:50:29.467Z,5.82
2019-06-10T08:53:10.367Z,6.27
2019-06-10T08:55:24.198Z,5.97
2019-06-10T08:57:53.892Z,6.43
2019-06-10T09:00:22.595Z,5.43
2019-06-10T09:07:41.811Z,6.43
2019-06-10T09:10:09.443Z,6.50
2019-06-10T09:12:36.868Z,6.70
2019-06-10T09:15:04.181Z,6.90
2019-06-10T09:17:33.817Z,6.47
2019-06-10T09:19:58.907Z,7.20
2019-06-10T09:22:26.338Z,6.40
2019-06-10T09:24:56.390Z,6.62
2019-06-10T09:27:26.095Z,6.15
2019-06-10T09:29:51.885Z,7.10
2019-06-10T09:32:15.842Z,6.20
2019-06-10T09:34:50.538Z,6.32
2019-06-10T09:37:12.351Z,7.20
2019-06-10T09:39:37.949Z,7.70
2019-06-10T09:42:06.576Z,7.83
2019-06-10T09:44:33.367Z,6.97
2019-06-10T09:47:01.033Z,6.47
2019-06-10T09:49:27.440Z,7.10
2019-06-10T09:51:57.452Z,6.10
2019-06-10T09:54:22.790Z,5.93
2019-06-10T09:56:50.484Z,6.70
2019-06-10T09:59:16.928Z,7.17
2019-06-10T10:01:48.307Z,7.45
2019-06-10T10:04:12.469Z,7.62
2019-06-10T10:06:39.444Z,8.32
2019-06-10T10:09:06.802Z,8.25
2019-06-10T10:11:35.145Z,8.43
2019-06-10T10:14:08.060Z,7.75
2019-06-10T10:16:29.921Z,8.18
2019-06-10T10:19:00.633Z,8.13
2019-06-10T10:24:06.269Z,8.88
2019-06-10T10:26:18.932Z,8.13
2019-06-10T10:28:49.900Z,8.10
2019-06-10T10:31:13.740Z,8.43
2019-06-10T10:33:42.509Z,9.20
2019-06-10T10:36:08.504Z,9.05
2019-06-10T10:38:35.860Z,8.82
2019-06-10T10:41:04.617Z,7.82
2019-06-10T10:43:34.042Z,7.80
2019-06-10T10:46:00.450Z,7.43
2019-06-10T10:48:25.304Z,8.53
2019-06-10T10:50:55.888Z,8.37
2019-06-10T10:53:21.436Z,8.00
2019-06-10T10:55:47.545Z,7.37
2019-06-10T10:58:14.980Z,7.60
2019-06-10T11:00:44.791Z,8.25
2019-06-10T11:03:14.380Z,8.43
2019-06-10T11:05:44.718Z,8.23
2019-06-10T11:08:09.166Z,8.10
2019-06-10T11:10:36.485Z,8.20
2019-06-10T11:13:03.890Z,8.48
2019-06-10T11:15:33.780Z,7.87
2019-06-10T11:17:58.611Z,8.27
2019-06-10T11:20:25.997Z,7.20
2019-06-10T11:22:53.658Z,5.90
2019-06-10T11:25:23.090Z,5.90
2019-06-10T11:27:48.539Z,5.50
2019-06-10T11:30:15.963Z,5.95
2019-06-10T11:32:43.351Z,5.53
2019-06-10T11:35:12.179Z,4.50
2019-06-10T11:37:37.560Z,4.20
2019-06-10T11:40:04.924Z,5.68
2019-06-10T11:42:33.469Z,5.20
2019-06-10T11:45:00.642Z,5.50
2019-06-10T11:47:27.041Z,5.30
2019-06-10T11:49:55.388Z,5.37
2019-06-10T11:52:23.052Z,4.80
2019-06-10T11:54:59.203Z,5.00
2019-06-10T11:57:16.582Z,4.90
2019-06-10T11:59:44.217Z,4.20
2019-06-10T12:02:13.293Z,4.12
2019-06-10T12:04:39.026Z,3.97
2019-06-10T12:07:05.997Z,3.97
2019-06-10T12:09:33.547Z,4.00
2019-06-10T12:12:02.195Z,3.90
2019-06-10T12:14:28.409Z,3.33
2019-06-10T12:19:23.600Z,3.57
2019-06-10T12:21:54.937Z,3.72
2019-06-10T12:24:17.871Z,3.60
2019-06-10T12:26:45.275Z,3.42
2019-06-10T12:29:12.662Z,3.47
2019-06-10T12:31:42.596Z,3.47
2019-06-10T12:34:07.378Z,4.28
2019-06-10T12:36:34.763Z,4.68
2019-06-10T12:39:09.844Z,3.92
2019-06-10T12:41:29.761Z,6.15
2019-06-10T12:43:58.356Z,6.47
2019-06-10T12:46:24.476Z,6.53
2019-06-10T12:48:53.999Z,6.10
2019-06-10T12:51:19.230Z,6.30
2019-06-10T12:53:46.618Z,6.13
2019-06-10T12:56:15.093Z,6.30
2019-06-10T12:58:43.266Z,6.30
2019-06-10T13:01:08.686Z,6.70
2019-06-10T13:03:36.119Z,6.70
2019-06-10T13:06:07.259Z,6.57
2019-06-10T13:08:33.068Z,6.80
2019-06-10T13:10:58.235Z,7.57
2019-06-10T13:13:25.588Z,7.53
2019-06-10T13:15:53.367Z,6.47
2019-06-10T13:18:20.332Z,6.60
2019-06-10T13:20:47.688Z,6.40
2019-06-10T13:23:23.643Z,5.73
2019-06-10T13:25:52.205Z,5.37
2019-06-10T13:28:10.033Z,5.43
2019-06-10T13:30:37.388Z,4.73
2019-06-10T13:33:10.490Z,4.97
2019-06-10T13:35:32.238Z,4.80
2019-06-10T13:37:59.607Z,4.53
2019-06-10T13:40:26.995Z,5.17
2019-06-10T13:42:54.343Z,4.93
2019-06-10T13:45:22.893Z,4.40
2019-06-10T13:47:49.512Z,4.20
2019-06-10T13:50:19.297Z,4.60
2019-06-10T13:52:44.249Z,4.73
2019-06-10T13:55:13.705Z,4.47
2019-06-10T13:57:38.981Z,4.77
2019-06-10T14:00:11.479Z,4.43
2019-06-10T14:02:36.437Z,3.90
2019-06-10T14:05:09.161Z,4.23
2019-06-10T14:07:32.458Z,4.10
2019-06-10T14:09:59.064Z,4.90
2019-06-10T14:12:26.330Z,4.30
2019-06-10T14:14:53.517Z,4.03
2019-06-10T14:17:22.704Z,3.70
2019-06-10T14:19:48.739Z,3.87
2019-06-10T14:22:16.390Z,3.57
2019-06-10T14:39:25.544Z,3.97
2019-06-10T14:41:52.923Z,3.65
2019-06-10T14:44:20.283Z,3.30
2019-06-10T14:46:47.664Z,3.25
2019-06-10T14:49:16.826Z,3.73
2019-06-10T14:51:43.081Z,3.35
2019-06-10T14:54:11.307Z,3.40
2019-06-10T14:56:49.566Z,3.10
2019-06-10T14:59:05.424Z,3.20
2019-06-10T15:01:32.286Z,3.13
2019-06-10T15:03:59.510Z,3.67
2019-06-10T15:06:26.876Z,3.22
2019-06-10T15:08:54.268Z,2.90
2019-06-10T15:11:23.333Z,3.00
2019-06-10T15:13:49.005Z,3.17
2019-06-10T15:16:16.721Z,3.03
2019-06-10T15:18:44.247Z,3.00
2019-06-10T15:21:11.603Z,3.30
2019-06-10T15:23:38.980Z,3.08
2019-06-10T15:26:09.986Z,3.30
2019-06-10T15:28:36.296Z,3.22
2019-06-10T15:31:03.684Z,3.30
2019-06-10T15:33:32.624Z,3.37
2019-06-10T15:35:58.423Z,3.10
2019-06-10T15:38:26.148Z,3.47
2019-06-10T15:40:53.597Z,3.20
2019-06-10T15:43:23.233Z,3.03
2019-06-10T15:45:48.241Z,3.10
2019-06-10T15:48:18.268Z,3.20
2019-06-10T15:50:43.053Z,3.50
2019-06-10T15:53:11.088Z,3.28
2019-06-10T15:56:05.596Z,3.55
2019-06-10T15:58:05.165Z,3.60
2019-06-10T16:00:34.098Z,3.40
2019-06-10T16:03:02.347Z,3.75
2019-06-10T16:05:27.363Z,3.70
2019-06-10T16:07:54.746Z,4.03
2019-06-10T16:10:26.600Z,3.80
2019-06-10T16:12:49.524Z,3.93
2019-06-10T16:15:18.182Z,3.85
2019-06-10T16:17:44.268Z,4.30
2019-06-10T16:20:13.097Z,4.70
2019-06-10T16:22:39.337Z,4.30
2019-06-10T16:25:06.698Z,4.50
2019-06-10T16:27:47.252Z,4.70
2019-06-10T16:30:02.784Z,4.60
2019-06-10T16:32:28.810Z,5.30
2019-06-10T16:34:56.155Z,5.53
2019-06-10T16:37:25.354Z,5.70
2019-06-10T16:39:52.511Z,6.15
2019-06-10T16:42:19.505Z,5.50
2019-06-10T16:44:45.776Z,5.77
2019-06-10T16:47:13.156Z,5.40
2019-06-10T16:49:42.760Z,5.82
2019-06-10T16:52:07.899Z,4.85
2019-06-10T16:54:35.315Z,5.10
2019-06-10T16:57:03.813Z,4.87
2019-06-10T16:59:32.446Z,4.37
2019-06-10T17:01:57.535Z,4.10
2019-06-10T17:04:27.259Z,4.20
2019-06-10T17:06:52.650Z,4.40
2019-06-10T17:09:21.093Z,4.43
2019-06-10T17:11:47.191Z,4.47
2019-06-10T17:14:14.601Z,4.47
2019-06-10T17:16:41.960Z,5.07
2019-06-10T17:19:09.327Z,4.73
2019-06-10T17:21:36.948Z,4.80
2019-06-10T17:24:04.321Z,5.00
2019-06-10T17:26:37.699Z,5.33
2019-06-10T17:28:59.113Z,5.20
2019-06-10T17:31:30.050Z,5.97
2019-06-10T17:33:53.816Z,6.40
2019-06-10T17:36:25.738Z,6.47
2019-06-10T17:38:48.562Z,6.37
2019-06-10T17:41:15.941Z,6.00
2019-06-10T17:43:43.337Z,6.50
2019-06-10T17:46:12.402Z,6.57
2019-06-10T17:48:38.040Z,6.67
2019-06-10T17:51:05.638Z,6.73
2019-06-10T17:53:34.989Z,6.50
2019-06-10T17:56:02.996Z,6.40
2019-06-10T17:58:39.273Z,7.37
2019-06-10T18:00:55.100Z,7.33
2019-06-10T18:03:24.290Z,7.03
2019-06-10T18:05:49.878Z,6.67
2019-06-10T18:08:17.243Z,7.03
2019-06-10T18:10:44.607Z,7.20
2019-06-10T18:13:16.478Z,7.37
2019-06-10T18:15:39.362Z,6.17
2019-06-10T18:18:06.720Z,6.60
2019-06-10T18:20:36.611Z,6.37
2019-06-10T18:23:02.788Z,7.00
2019-06-10T18:25:29.130Z,7.53
2019-06-10T18:27:56.502Z,7.00
2019-06-10T18:30:25.090Z,7.03
2019-06-10T18:32:52.565Z,6.70
2019-06-10T18:35:18.709Z,6.57
2019-06-10T18:37:46.085Z,7.00
2019-06-10T18:40:14.630Z,7.17
2019-06-10T18:42:40.833Z,6.80
2019-06-10T18:45:12.990Z,5.43
2019-06-10T18:47:38.812Z,4.47
2019-06-10T18:50:05.861Z,5.13
2019-06-10T18:52:33.219Z,4.67
2019-06-10T18:55:03.185Z,4.50
2019-06-10T18:57:28.773Z,5.43
2019-06-10T18:59:55.500Z,5.27
2019-06-10T19:02:22.855Z,5.30
2019-06-10T19:04:50.232Z,5.80
2019-06-10T19:07:17.583Z,6.63
2019-06-10T19:09:47.973Z,5.43
2019-06-10T19:12:13.461Z,4.87
2019-06-10T19:14:39.903Z,5.23
2019-06-10T19:17:07.052Z,5.43
2019-06-10T19:19:34.462Z,5.80
2019-06-10T19:22:08.799Z,6.27
2019-06-10T19:24:30.979Z,6.23
2019-06-10T19:26:59.988Z,6.30
2019-06-10T19:29:33.493Z,6.10
2019-06-10T19:31:52.600Z,6.33
2019-06-10T19:34:19.405Z,6.33
2019-06-10T19:36:46.751Z,6.57
2019-06-10T19:39:14.110Z,6.67
2019-06-10T19:41:47.065Z,6.37
2019-06-10T19:44:09.002Z,6.10
2019-06-10T19:46:37.675Z,6.97
2019-06-10T19:49:07.115Z,6.47
2019-06-10T19:51:32.930Z,6.97
2019-06-10T19:53:58.457Z,7.57
2019-06-10T19:56:26.558Z,6.90
2019-06-10T19:58:53.198Z,7.03
2019-06-10T20:01:22.585Z,7.80
2019-06-10T20:03:48.108Z,7.20
2019-06-10T20:06:15.468Z,7.70
2019-06-10T20:08:45.729Z,7.83
2019-06-10T20:11:12.302Z,6.93
2019-06-10T20:13:38.553Z,7.30
2019-06-10T20:16:04.928Z,7.07
2019-06-10T20:18:33.179Z,7.33
2019-06-10T20:21:02.473Z,8.37
2019-06-10T20:23:27.035Z,7.27
2019-06-10T20:25:54.951Z,7.60
2019-06-10T20:28:22.518Z,8.03
2019-06-10T20:30:49.665Z,8.17
2019-06-10T20:33:17.060Z,8.33
2019-06-10T20:35:45.641Z,9.07
2019-06-10T20:38:13.107Z,8.60
2019-06-10T20:40:40.660Z,8.20
2019-06-10T20:43:06.506Z,8.93
2019-06-10T20:45:33.863Z,9.10
2019-06-10T20:48:02.759Z,8.87
2019-06-10T20:50:28.627Z,9.07
2019-06-10T20:53:10.728Z,9.07
2019-06-10T20:55:39.824Z,8.87
2019-06-10T20:58:02.806Z,9.20
2019-06-10T21:00:26.453Z,9.87
2019-06-10T21:02:53.719Z,8.67
2019-06-10T21:05:18.635Z,8.83
2019-06-10T21:07:47.229Z,9.87
2019-06-10T21:10:16.822Z,9.43
2019-06-10T21:12:44.346Z,9.03
2019-06-10T21:15:08.386Z,9.93
2019-06-10T21:17:35.765Z,9.80
2019-06-10T21:20:03.513Z,9.80
2019-06-10T21:22:32.500Z,10.70
2019-06-10T21:24:57.873Z,10.07
2019-06-10T21:27:26.353Z,9.83
2019-06-10T21:29:54.754Z,11.20
2019-06-10T21:32:21.102Z,11.33
2019-06-10T21:34:49.275Z,11.50
2019-06-10T21:37:15.819Z,11.53
2019-06-10T21:39:44.894Z,11.30
2019-06-10T21:42:12.452Z,10.30
2019-06-10T21:44:37.923Z,9.70
2019-06-10T21:47:05.297Z,8.97
2019-06-10T21:49:32.658Z,8.63
2019-06-10T21:52:00.015Z,9.00
2019-06-10T21:54:27.412Z,7.33
2019-06-10T21:56:55.640Z,6.57
2019-06-10T21:59:22.130Z,7.30
2019-06-10T22:01:49.533Z,6.90
2019-06-10T22:04:16.879Z,6.57
2019-06-10T22:06:45.330Z,6.67
2019-06-10T22:09:12.486Z,5.57
2019-06-10T22:11:38.967Z,6.10
2019-06-10T22:14:06.322Z,6.20
2019-06-10T22:16:33.727Z,5.77
2019-06-10T22:19:03.148Z,6.03
2019-06-10T22:21:28.442Z,6.13
2019-06-10T22:23:57.070Z,5.60
2019-06-10T22:26:23.174Z,5.97
2019-06-10T22:28:54.127Z,5.40
2019-06-10T22:31:22.862Z,5.57
2019-06-10T22:33:45.388Z,6.00
2019-06-10T22:36:13.045Z,5.87
2019-06-10T22:38:40.271Z,5.73
2019-06-10T22:41:07.620Z,6.20
2019-06-10T22:43:34.975Z,7.47
2019-06-10T22:46:03.929Z,7.03
2019-06-10T22:48:29.684Z,7.23
2019-06-10T22:50:57.023Z,7.10
2019-06-10T22:53:24.400Z,7.87
2019-06-10T22:55:53.463Z,8.07
2019-06-10T22:58:19.132Z,8.47
2019-06-10T23:00:48.047Z,8.73
2019-06-10T23:03:14.167Z,8.67
2019-06-10T23:05:43.426Z,8.50
2019-06-10T23:08:08.927Z,7.93
2019-06-10T23:10:36.271Z,8.77
2019-06-10T23:13:03.641Z,9.17
2019-06-10T23:15:32.312Z,9.03
2019-06-10T23:17:59.143Z,8.03
2019-06-10T23:20:25.737Z,7.20
2019-06-10T23:22:56.083Z,6.30
2019-06-10T23:25:22.125Z,5.03
2019-06-10T23:27:48.180Z,5.30
2019-06-10T23:30:15.552Z,5.73
2019-06-10T23:32:42.907Z,5.30
2019-06-10T23:35:12.280Z,5.33
2019-06-10T23:37:37.643Z,5.20
2019-06-10T23:40:04.998Z,5.30
2019-06-10T23:42:32.346Z,6.43
2019-06-10T23:45:01.965Z,6.53
2019-06-10T23:47:27.271Z,6.40
2019-06-10T23:49:55.659Z,8.40
2019-06-10T23:52:22.198Z,9.17
2019-06-10T23:54:49.381Z,10.93
2019-06-10T23:57:16.734Z,11.50
2019-06-10T23:59:44.114Z,11.40
